createdAt,value
2023-01-13T00:00:16.561Z,16.20
2023-01-13T00:02:43.568Z,13.23
2023-01-13T00:05:10.731Z,11.93
2023-01-13T00:07:37.878Z,10.60
2023-01-13T00:10:05.519Z,14.70
2023-01-13T00:12:32.467Z,15.40
2023-01-13T00:14:59.418Z,17.40
2023-01-13T00:17:26.428Z,17.67
2023-01-13T00:19:53.218Z,13.07
2023-01-13T00:22:20.114Z,12.00
2023-01-13T00:24:47.022Z,11.35
2023-01-13T00:27:14.101Z,14.60
2023-01-13T00:29:40.982Z,15.10
2023-01-13T00:32:08.024Z,13.90
2023-01-13T00:34:34.984Z,18.33
2023-01-13T00:37:01.896Z,13.30
2023-01-13T00:39:28.828Z,10.70
2023-01-13T00:41:55.719Z,12.30
2023-01-13T00:44:22.638Z,11.60
2023-01-13T00:46:49.567Z,10.02
2023-01-13T00:49:16.537Z,11.48
2023-01-13T00:51:43.363Z,9.57
2023-01-13T00:54:10.384Z,9.57
2023-01-13T00:56:40.461Z,9.70
2023-01-13T00:59:12.093Z,9.07
2023-01-13T01:01:39.128Z,8.32
2023-01-13T01:04:06.198Z,8.90
2023-01-13T01:06:33.067Z,9.30
2023-01-13T01:09:00.009Z,10.60
2023-01-13T01:11:30.213Z,10.43
2023-01-13T01:13:59.506Z,10.13
2023-01-13T01:16:29.792Z,11.90
2023-01-13T01:18:57.141Z,12.70
2023-01-13T01:21:26.023Z,10.75
2023-01-13T01:23:53.711Z,10.50
2023-01-13T01:26:26.057Z,9.57
2023-01-13T01:28:53.207Z,9.53
2023-01-13T01:31:27.003Z,12.00
2023-01-13T01:33:54.801Z,9.43
2023-01-13T01:36:23.461Z,11.93
2023-01-13T01:38:50.556Z,8.57
2023-01-13T01:41:23.879Z,9.10
2023-01-13T01:43:59.949Z,9.18
2023-01-13T01:46:48.356Z,9.77
2023-01-13T01:49:32.730Z,8.95
2023-01-13T01:52:06.820Z,8.68
2023-01-13T01:54:57.129Z,8.43
2023-01-13T01:57:30.007Z,9.65
2023-01-13T02:00:00.544Z,9.60
2023-01-13T02:02:29.415Z,11.98
2023-01-13T02:04:56.613Z,12.23
2023-01-13T02:07:29.149Z,12.10
2023-01-13T02:09:58.005Z,12.90
2023-01-13T02:12:27.193Z,13.02
2023-01-13T02:14:54.064Z,13.98
2023-01-13T02:17:21.045Z,13.43
2023-01-13T02:20:35.774Z,11.60
2023-01-13T02:23:21.286Z,16.52
2023-01-13T02:26:12.210Z,19.15
2023-01-13T02:28:54.349Z,21.63
2023-01-13T02:31:21.405Z,21.55
2023-01-13T02:34:01.794Z,23.67
2023-01-13T02:37:00.145Z,16.67
2023-01-13T02:39:46.242Z,23.27
2023-01-13T02:42:23.072Z,21.67
2023-01-13T02:44:57.850Z,17.23
2023-01-13T02:47:30.908Z,18.77
2023-01-13T02:50:12.095Z,16.58
2023-01-13T02:52:46.596Z,16.63
2023-01-13T02:55:18.425Z,17.13
2023-01-13T02:57:47.147Z,21.30
2023-01-13T03:00:16.627Z,22.23
2023-01-13T03:02:43.626Z,19.83
2023-01-13T03:05:15.399Z,21.98
2023-01-13T03:08:00.985Z,21.73
2023-01-13T03:11:07.373Z,21.08
2023-01-13T03:13:51.377Z,19.97
2023-01-13T03:16:42.627Z,23.33
2023-01-13T03:19:15.394Z,14.88
2023-01-13T03:21:48.585Z,15.15
2023-01-13T03:24:34.988Z,15.93
2023-01-13T03:27:14.319Z,16.40
2023-01-13T03:29:46.785Z,18.23
2023-01-13T03:32:31.985Z,18.00
2023-01-13T03:35:14.949Z,17.60
2023-01-13T03:37:47.040Z,15.35
2023-01-13T03:40:35.937Z,14.27
2023-01-13T03:43:21.148Z,14.30
2023-01-13T03:45:55.127Z,12.57
2023-01-13T03:48:25.651Z,10.52
2023-01-13T03:50:56.071Z,9.98
2023-01-13T03:53:33.449Z,10.63
2023-01-13T03:56:09.641Z,8.82
2023-01-13T03:58:42.816Z,10.30
2023-01-13T04:01:18.155Z,9.10
2023-01-13T04:03:50.925Z,7.63
2023-01-13T04:06:30.056Z,9.53
2023-01-13T04:09:07.293Z,10.40
2023-01-13T04:11:40.019Z,8.77
2023-01-13T04:14:10.265Z,7.72
2023-01-13T04:16:38.067Z,8.85
2023-01-13T04:19:05.242Z,12.60
2023-01-13T04:21:33.489Z,13.23
2023-01-13T04:24:00.420Z,11.65
2023-01-13T04:26:27.284Z,14.30
2023-01-13T04:28:54.413Z,17.55
2023-01-13T04:31:21.719Z,17.63
2023-01-13T04:33:48.793Z,17.15
2023-01-13T04:36:15.774Z,14.43
2023-01-13T04:38:42.716Z,12.88
2023-01-13T04:41:09.759Z,12.18
2023-01-13T04:43:36.976Z,9.03
2023-01-13T04:46:03.914Z,9.00
2023-01-13T04:48:30.840Z,12.02
2023-01-13T04:50:57.817Z,11.70
2023-01-13T04:53:24.952Z,12.30
2023-01-13T04:55:51.862Z,15.20
2023-01-13T04:58:21.672Z,15.25
2023-01-13T05:00:50.955Z,15.55
2023-01-13T05:03:17.920Z,17.58
2023-01-13T05:05:44.930Z,17.85
2023-01-13T05:08:12.183Z,20.07
2023-01-13T05:10:39.177Z,28.23
2023-01-13T05:13:06.156Z,108.00
2023-01-13T05:15:33.217Z,102.38
2023-01-13T05:18:01.621Z,26.42
2023-01-13T05:20:28.579Z,28.43
2023-01-13T05:22:55.557Z,20.92
2023-01-13T05:25:23.050Z,9.70
2023-01-13T05:27:50.761Z,8.75
2023-01-13T05:30:18.217Z,16.30
2023-01-13T05:32:45.115Z,13.67
2023-01-13T05:35:12.107Z,11.73
2023-01-13T05:37:38.957Z,12.95
2023-01-13T05:40:06.642Z,15.32
2023-01-13T05:42:33.625Z,16.50
2023-01-13T05:45:00.487Z,25.37
2023-01-13T05:47:27.487Z,23.70
2023-01-13T05:49:54.341Z,20.70
2023-01-13T05:52:21.323Z,19.10
2023-01-13T05:54:48.113Z,15.65
2023-01-13T05:57:15.084Z,18.37
2023-01-13T05:59:44.268Z,15.27
2023-01-13T06:02:11.169Z,22.13
2023-01-13T06:04:38.087Z,20.88
2023-01-13T06:07:05.348Z,23.65
2023-01-13T06:09:32.223Z,26.57
2023-01-13T06:11:59.081Z,28.60
2023-01-13T06:14:26.003Z,28.35
2023-01-13T06:16:52.913Z,24.35
2023-01-13T06:19:19.786Z,21.52
2023-01-13T06:21:46.675Z,21.37
2023-01-13T06:24:13.592Z,18.65
2023-01-13T06:26:41.551Z,17.85
2023-01-13T06:29:08.401Z,18.00
2023-01-13T06:31:39.370Z,25.88
2023-01-13T06:34:09.951Z,26.77
2023-01-13T06:36:41.672Z,35.08
2023-01-13T06:39:11.528Z,31.38
2023-01-13T06:41:38.698Z,35.08
2023-01-13T06:44:05.943Z,35.75
2023-01-13T06:46:33.134Z,33.20
2023-01-13T06:49:00.119Z,27.38
2023-01-13T06:51:27.246Z,23.40
2023-01-13T06:53:54.165Z,27.48
2023-01-13T06:56:21.192Z,28.73
2023-01-13T06:58:48.117Z,28.90
2023-01-13T07:01:15.133Z,36.72
2023-01-13T07:03:42.208Z,36.78
2023-01-13T07:06:09.061Z,32.20
2023-01-13T07:08:36.096Z,34.75
2023-01-13T07:11:03.386Z,34.93
2023-01-13T07:13:30.371Z,37.67
2023-01-13T07:15:59.343Z,42.88
2023-01-13T07:18:27.914Z,34.30
2023-01-13T07:20:56.608Z,33.70
2023-01-13T07:23:23.888Z,40.40
2023-01-13T07:25:50.886Z,27.63
2023-01-13T07:28:17.792Z,24.73
2023-01-13T07:30:44.890Z,30.77
2023-01-13T07:33:11.877Z,31.05
2023-01-13T07:35:38.788Z,32.43
2023-01-13T07:38:05.756Z,34.10
2023-01-13T07:40:32.668Z,83.28
2023-01-13T07:42:59.642Z,64.63
2023-01-13T07:45:26.721Z,63.15
2023-01-13T07:47:53.756Z,52.80
2023-01-13T07:50:20.914Z,48.63
2023-01-13T07:52:47.761Z,56.40
2023-01-13T07:55:14.796Z,55.83
2023-01-13T07:57:41.633Z,62.03
2023-01-13T08:00:11.434Z,60.10
2023-01-13T08:02:39.783Z,65.20
2023-01-13T08:05:07.223Z,60.33
2023-01-13T08:07:34.213Z,53.60
2023-01-13T08:10:01.328Z,62.33
2023-01-13T08:12:29.222Z,46.17
2023-01-13T08:14:56.272Z,45.95
2023-01-13T08:17:23.119Z,55.28
2023-01-13T08:19:50.306Z,36.08
2023-01-13T08:22:17.219Z,42.30
2023-01-13T08:24:44.173Z,24.60
2023-01-13T08:27:11.099Z,15.50
2023-01-13T08:29:38.041Z,28.20
2023-01-13T08:32:05.185Z,18.50
2023-01-13T08:34:32.059Z,18.52
2023-01-13T08:36:58.918Z,12.70
2023-01-13T08:39:25.728Z,133.98
2023-01-13T08:41:52.790Z,29.77
2023-01-13T08:44:19.777Z,16.15
2023-01-13T08:46:46.743Z,16.77
2023-01-13T08:49:13.687Z,13.87
2023-01-13T08:51:40.614Z,14.95
2023-01-13T08:54:07.619Z,12.73
2023-01-13T08:56:35.637Z,27.15
2023-01-13T08:59:03.150Z,14.43
2023-01-13T09:01:30.229Z,11.03
2023-01-13T09:03:57.293Z,12.77
2023-01-13T09:06:24.308Z,10.85
2023-01-13T09:08:51.269Z,14.35
2023-01-13T09:11:29.453Z,16.33
2023-01-13T09:13:56.431Z,11.20
2023-01-13T09:16:23.495Z,11.65
2023-01-13T09:18:50.364Z,14.10
2023-01-13T09:21:18.428Z,12.40
2023-01-13T09:23:45.442Z,16.90
2023-01-13T09:26:21.479Z,12.03
2023-01-13T09:28:48.532Z,11.45
2023-01-13T09:31:15.558Z,15.35
2023-01-13T09:33:42.436Z,18.88
2023-01-13T09:36:09.351Z,12.77
2023-01-13T09:38:36.366Z,15.33
2023-01-13T09:41:03.530Z,12.98
2023-01-13T09:43:38.271Z,15.57
2023-01-13T09:46:18.551Z,12.35
2023-01-13T09:48:45.721Z,13.15
2023-01-13T09:51:28.202Z,14.13
2023-01-13T09:54:00.814Z,10.57
2023-01-13T09:56:27.799Z,12.75
2023-01-13T09:58:54.741Z,15.40
2023-01-13T10:01:27.181Z,10.65
2023-01-13T10:03:54.426Z,13.63
2023-01-13T10:06:30.642Z,17.20
2023-01-13T10:08:58.206Z,15.20
2023-01-13T10:11:26.043Z,18.05
2023-01-13T10:13:58.272Z,16.05
2023-01-13T10:16:40.917Z,15.63
2023-01-13T10:19:26.054Z,13.90
2023-01-13T10:22:01.878Z,15.70
2023-01-13T10:24:49.617Z,14.98
2023-01-13T10:27:33.784Z,15.63
2023-01-13T10:30:21.628Z,14.47
2023-01-13T10:32:56.741Z,12.38
2023-01-13T10:35:53.255Z,14.32
2023-01-13T10:38:30.882Z,15.07
2023-01-13T10:41:03.666Z,19.80
2023-01-13T10:43:31.515Z,15.63
2023-01-13T10:46:07.388Z,16.13
2023-01-13T10:48:38.513Z,18.48
2023-01-13T10:51:14.395Z,13.90
2023-01-13T10:53:59.653Z,16.83
2023-01-13T10:56:34.225Z,19.50
2023-01-13T10:59:26.269Z,17.98
2023-01-13T11:02:01.224Z,13.60
2023-01-13T11:04:31.318Z,16.55
2023-01-13T11:06:59.622Z,15.15
2023-01-13T11:09:27.805Z,15.90
2023-01-13T11:11:56.678Z,13.27
2023-01-13T11:14:26.531Z,15.98
2023-01-13T11:16:58.287Z,17.50
2023-01-13T11:19:29.085Z,14.32
2023-01-13T11:22:04.747Z,12.57
2023-01-13T11:24:54.436Z,14.00
2023-01-13T11:27:44.233Z,13.43
2023-01-13T11:30:26.486Z,17.33
2023-01-13T11:33:00.449Z,19.80
2023-01-13T11:35:29.753Z,18.93
2023-01-13T11:38:08.993Z,16.83
2023-01-13T11:40:46.924Z,15.05
2023-01-13T11:43:40.039Z,15.35
2023-01-13T11:46:09.028Z,14.18
2023-01-13T11:48:40.782Z,17.03
2023-01-13T11:51:13.667Z,17.88
2023-01-13T11:53:46.578Z,16.45
2023-01-13T11:56:56.008Z,12.27
2023-01-13T11:59:43.345Z,14.65
2023-01-13T12:02:25.389Z,13.20
2023-01-13T12:05:23.934Z,13.63
2023-01-13T12:08:18.848Z,16.65
2023-01-13T12:11:07.115Z,13.00
2023-01-13T12:13:52.392Z,13.65
2023-01-13T12:16:32.190Z,15.98
2023-01-13T12:19:19.235Z,14.80
2023-01-13T12:22:04.936Z,16.23
2023-01-13T12:24:44.715Z,18.13
2023-01-13T12:27:32.666Z,17.63
2023-01-13T12:30:03.416Z,16.27
2023-01-13T12:32:38.130Z,13.88
2023-01-13T12:35:23.667Z,57.22
2023-01-13T12:37:53.343Z,15.77
2023-01-13T12:40:48.692Z,15.05
2023-01-13T12:43:17.631Z,16.58
2023-01-13T12:45:44.643Z,19.70
2023-01-13T12:48:48.696Z,16.83
2023-01-13T12:51:31.168Z,16.83
2023-01-13T12:53:58.395Z,16.38
2023-01-13T12:56:28.435Z,16.88
2023-01-13T12:59:17.221Z,15.90
2023-01-13T13:01:46.422Z,16.15
2023-01-13T13:04:20.778Z,15.30
2023-01-13T13:07:03.444Z,16.02
2023-01-13T13:09:39.848Z,15.02
2023-01-13T13:12:31.502Z,12.98
2023-01-13T13:14:58.329Z,16.27
2023-01-13T13:17:31.510Z,33.43
2023-01-13T13:20:00.258Z,15.70
2023-01-13T13:22:27.251Z,16.05
2023-01-13T13:24:57.023Z,33.88
2023-01-13T13:27:39.185Z,29.10
2023-01-13T13:30:28.815Z,14.07
2023-01-13T13:33:12.784Z,11.93
2023-01-13T13:36:01.227Z,26.75
2023-01-13T13:38:37.073Z,23.92
2023-01-13T13:43:46.513Z,14.57
2023-01-13T13:46:34.655Z,13.30
2023-01-13T13:49:02.379Z,12.15
2023-01-13T13:51:40.082Z,10.77
2023-01-13T13:54:15.638Z,13.55
2023-01-13T13:56:47.201Z,11.50
2023-01-13T13:59:25.485Z,15.02
2023-01-13T14:02:01.929Z,11.77
2023-01-13T14:04:36.559Z,316.52
2023-01-13T14:07:21.439Z,123.72
2023-01-13T14:09:51.832Z,253.17
2023-01-13T14:12:25.676Z,210.30
2023-01-13T14:14:57.225Z,106.45
2023-01-13T14:17:30.682Z,246.35
2023-01-13T14:20:34.087Z,217.55
2023-01-13T14:23:17.839Z,246.03
2023-01-13T14:25:56.521Z,144.43
2023-01-13T14:28:48.919Z,44.30
2023-01-13T14:31:17.048Z,70.15
2023-01-13T14:33:48.687Z,117.70
2023-01-13T14:36:24.160Z,55.97
2023-01-13T14:39:10.950Z,49.22
2023-01-13T14:41:45.600Z,35.92
2023-01-13T14:44:32.277Z,56.08
2023-01-13T14:47:03.128Z,47.42
2023-01-13T14:50:03.981Z,45.17
2023-01-13T14:52:34.231Z,178.68
2023-01-13T14:55:06.790Z,287.23
2023-01-13T14:57:35.303Z,147.63
2023-01-13T15:00:14.484Z,154.05
2023-01-13T15:02:46.740Z,133.00
2023-01-13T15:05:19.460Z,88.70
2023-01-13T15:07:58.225Z,148.80
2023-01-13T15:10:31.440Z,139.77
2023-01-13T15:13:03.222Z,74.43
2023-01-13T15:15:31.865Z,128.93
2023-01-13T15:18:02.244Z,98.35
2023-01-13T15:20:29.368Z,96.35
2023-01-13T15:22:56.816Z,65.95
2023-01-13T15:25:24.785Z,92.13
2023-01-13T15:27:53.195Z,90.87
2023-01-13T15:30:27.923Z,123.85
2023-01-13T15:33:01.199Z,163.07
2023-01-13T15:35:29.358Z,54.20
2023-01-13T15:37:58.859Z,80.05
2023-01-13T15:40:31.483Z,78.40
2023-01-13T15:42:59.014Z,71.45
2023-01-13T15:45:27.167Z,108.20
2023-01-13T15:47:54.202Z,71.68
2023-01-13T15:50:21.131Z,53.88
2023-01-13T15:52:48.603Z,52.97
2023-01-13T15:55:21.791Z,25.70
2023-01-13T15:57:50.517Z,50.33
2023-01-13T16:00:23.365Z,33.85
2023-01-13T16:02:51.120Z,35.22
2023-01-13T16:05:21.408Z,30.67
2023-01-13T16:07:48.364Z,40.28
2023-01-13T16:10:19.740Z,39.90
2023-01-13T16:12:46.784Z,27.88
2023-01-13T16:15:15.348Z,27.88
2023-01-13T16:17:44.947Z,34.93
2023-01-13T16:20:17.500Z,23.10
2023-01-13T16:22:45.474Z,40.70
2023-01-13T16:25:23.018Z,25.77
2023-01-13T16:27:51.070Z,49.17
2023-01-13T16:30:41.163Z,35.07
2023-01-13T16:33:08.073Z,34.25
2023-01-13T16:35:35.230Z,58.22
2023-01-13T16:38:02.511Z,28.02
2023-01-13T16:40:31.889Z,22.65
2023-01-13T16:43:00.541Z,29.80
2023-01-13T16:45:27.994Z,20.63
2023-01-13T16:48:01.316Z,23.55
2023-01-13T16:50:40.741Z,23.25
2023-01-13T16:53:11.153Z,25.27
2023-01-13T16:55:39.818Z,19.53
2023-01-13T16:58:17.412Z,29.17
2023-01-13T17:00:45.194Z,27.48
2023-01-13T17:03:12.131Z,20.90
2023-01-13T17:05:44.901Z,22.65
2023-01-13T17:08:17.777Z,21.00
2023-01-13T17:10:45.867Z,21.80
2023-01-13T17:13:16.404Z,19.58
2023-01-13T17:15:44.274Z,23.08
2023-01-13T17:18:11.099Z,25.67
2023-01-13T17:20:40.271Z,18.97
2023-01-13T17:23:07.153Z,20.52
2023-01-13T17:25:34.254Z,19.13
2023-01-13T17:28:01.250Z,15.98
2023-01-13T17:30:28.189Z,19.27
2023-01-13T17:32:57.943Z,17.77
2023-01-13T17:35:26.236Z,15.25
2023-01-13T17:38:01.057Z,19.33
2023-01-13T17:40:27.962Z,15.75
2023-01-13T17:42:54.869Z,14.68
2023-01-13T17:45:21.779Z,14.97
2023-01-13T17:47:48.753Z,11.77
2023-01-13T17:50:17.549Z,14.52
2023-01-13T17:52:44.497Z,15.32
2023-01-13T17:55:12.666Z,14.10
2023-01-13T17:57:39.542Z,11.63
2023-01-13T18:00:07.137Z,13.02
2023-01-13T18:02:37.400Z,28.52
2023-01-13T18:05:04.598Z,16.58
2023-01-13T18:07:31.606Z,16.38
2023-01-13T18:09:58.622Z,15.37
2023-01-13T18:12:25.586Z,12.50
2023-01-13T18:14:52.605Z,13.68
2023-01-13T18:17:19.462Z,14.20
2023-01-13T18:19:48.165Z,12.65
2023-01-13T18:22:15.086Z,14.57
2023-01-13T18:24:42.156Z,16.65
2023-01-13T18:27:12.398Z,13.95
2023-01-13T18:29:39.416Z,18.35
2023-01-13T18:32:06.756Z,16.10
2023-01-13T18:34:33.750Z,13.70
2023-01-13T18:37:00.600Z,14.77
2023-01-13T18:39:27.810Z,15.10
2023-01-13T18:41:57.571Z,16.38
2023-01-13T18:44:24.357Z,14.65
2023-01-13T18:46:51.231Z,15.50
2023-01-13T18:49:18.312Z,19.55
2023-01-13T18:51:45.163Z,16.33
2023-01-13T18:54:11.991Z,15.60
2023-01-13T18:56:38.991Z,18.58
2023-01-13T18:59:05.847Z,20.17
2023-01-13T19:01:32.950Z,20.23
2023-01-13T19:04:02.131Z,17.77
2023-01-13T19:06:32.258Z,18.40
2023-01-13T19:09:00.559Z,19.00
2023-01-13T19:11:28.276Z,16.13
2023-01-13T19:13:57.444Z,17.92
2023-01-13T19:16:24.435Z,17.88
2023-01-13T19:18:51.377Z,18.42
2023-01-13T19:21:18.358Z,18.60
2023-01-13T19:23:45.376Z,19.20
2023-01-13T19:26:13.222Z,18.48
2023-01-13T19:28:40.769Z,18.58
2023-01-13T19:31:10.748Z,15.88
2023-01-13T19:33:40.270Z,14.93
2023-01-13T19:36:08.211Z,20.30
2023-01-13T19:38:37.177Z,18.55
2023-01-13T19:41:06.482Z,16.40
2023-01-13T19:43:33.448Z,12.98
2023-01-13T19:46:00.468Z,13.55
2023-01-13T19:48:27.548Z,14.03
2023-01-13T19:50:54.590Z,15.07
2023-01-13T19:53:22.643Z,17.08
2023-01-13T19:55:51.812Z,16.15
2023-01-13T19:58:19.216Z,15.50
2023-01-13T20:00:46.888Z,15.03
2023-01-13T20:03:18.509Z,15.40
2023-01-13T20:05:45.349Z,16.50
2023-01-13T20:08:12.725Z,14.32
2023-01-13T20:10:42.860Z,15.98
2023-01-13T20:13:09.919Z,17.30
2023-01-13T20:15:38.668Z,15.40
2023-01-13T20:18:08.800Z,14.05
2023-01-13T20:20:38.610Z,16.83
2023-01-13T20:23:09.772Z,17.88
2023-01-13T20:25:36.720Z,15.23
2023-01-13T20:28:03.975Z,15.60
2023-01-13T20:30:30.915Z,14.68
2023-01-13T20:32:57.842Z,15.25
2023-01-13T20:35:27.561Z,13.80
2023-01-13T20:37:57.261Z,14.00
2023-01-13T20:40:24.323Z,13.13
2023-01-13T20:42:51.263Z,15.82
2023-01-13T20:45:20.328Z,13.35
2023-01-13T20:47:47.807Z,16.88
2023-01-13T20:50:16.305Z,16.47
2023-01-13T20:52:47.025Z,15.82
2023-01-13T20:55:16.752Z,19.67
2023-01-13T20:57:43.710Z,16.65
2023-01-13T21:00:12.890Z,16.42
2023-01-13T21:02:40.424Z,18.67
2023-01-13T21:05:07.594Z,13.05
2023-01-13T21:07:34.539Z,11.80
2023-01-13T21:10:01.565Z,15.88
2023-01-13T21:12:28.600Z,13.68
2023-01-13T21:14:55.556Z,14.07
2023-01-13T21:17:23.029Z,15.45
2023-01-13T21:19:50.617Z,16.10
2023-01-13T21:22:17.610Z,17.52
2023-01-13T21:24:44.500Z,17.70
2023-01-13T21:27:11.509Z,16.83
2023-01-13T21:29:38.541Z,14.45
2023-01-13T21:32:05.857Z,19.10
2023-01-13T21:34:32.910Z,18.67
2023-01-13T21:36:59.873Z,18.17
2023-01-13T21:39:27.104Z,22.63
2023-01-13T21:41:54.493Z,18.85
2023-01-13T21:44:21.925Z,14.95
2023-01-13T21:46:48.789Z,17.70
2023-01-13T21:49:15.680Z,16.27
2023-01-13T21:51:44.885Z,15.77
2023-01-13T21:54:11.851Z,18.17
2023-01-13T21:56:38.749Z,17.05
2023-01-13T21:59:05.599Z,15.77
2023-01-13T22:01:32.659Z,16.23
2023-01-13T22:03:59.864Z,17.20
2023-01-13T22:06:27.532Z,16.92
2023-01-13T22:08:58.506Z,19.88
2023-01-13T22:11:25.622Z,21.65
2023-01-13T22:13:52.585Z,20.92
2023-01-13T22:16:19.623Z,23.33
2023-01-13T22:18:46.588Z,25.05
2023-01-13T22:21:13.679Z,22.67
2023-01-13T22:23:40.676Z,32.00
2023-01-13T22:26:09.041Z,36.17
2023-01-13T22:28:36.791Z,29.47
2023-01-13T22:31:08.073Z,25.73
2023-01-13T22:33:35.232Z,25.00
2023-01-13T22:36:02.100Z,25.88
2023-01-13T22:38:29.366Z,26.67
2023-01-13T22:40:58.411Z,24.13
2023-01-13T22:43:25.399Z,21.60
2023-01-13T22:46:03.421Z,25.30
2023-01-13T22:48:30.629Z,24.20
2023-01-13T22:50:57.484Z,23.23
2023-01-13T22:53:24.371Z,23.57
2023-01-13T22:55:58.437Z,30.58
2023-01-13T22:58:26.330Z,23.58
2023-01-13T23:00:53.568Z,30.73
2023-01-13T23:03:20.448Z,30.40
2023-01-13T23:05:47.531Z,24.07
2023-01-13T23:08:14.869Z,27.73
2023-01-13T23:10:41.938Z,24.80
2023-01-13T23:13:09.305Z,23.10
2023-01-13T23:15:36.320Z,24.77
2023-01-13T23:18:03.235Z,28.63
2023-01-13T23:20:30.887Z,28.30
2023-01-13T23:22:57.927Z,22.50
2023-01-13T23:25:25.793Z,26.85
2023-01-13T23:27:53.833Z,20.55
2023-01-13T23:30:20.841Z,20.20
2023-01-13T23:32:47.777Z,22.30
2023-01-13T23:35:14.971Z,25.63
2023-01-13T23:37:41.899Z,22.90
2023-01-13T23:40:09.627Z,23.02
2023-01-13T23:42:36.746Z,20.43
2023-01-13T23:45:04.183Z,20.42
2023-01-13T23:47:31.009Z,18.98
2023-01-13T23:49:57.881Z,15.95
2023-01-13T23:52:24.770Z,16.50
2023-01-13T23:54:51.781Z,16.97
2023-01-13T23:57:18.932Z,14.25
2023-01-13T23:59:45.894Z,19.17
